Time;durP1;ratioP1;P1;durP2;ratioP2;P2;SDS_P1;SDS_P2;PMS_P1;PMS_P2;Temp;Humidity;BMP_temperature;BMP_pressure;BME280_temperature;BME280_humidity;BME280_pressure;Samples;Min_cycle;Max_cycle;Signal;HPM_P1;HPM_P2
2022/09/17 00:00:00;;;;;;;8.23;1.65;;;;;;;25.53;43.12;97865.00;5014491;28;20045;-74
2022/09/17 00:02:26;;;;;;;7.32;1.75;;;;;;;25.54;43.20;97868.47;5014387;28;20022;-74
2022/09/17 00:04:52;;;;;;;8.50;1.90;;;;;;;25.51;43.22;97866.28;5014282;28;20034;-74
2022/09/17 00:07:17;;;;;;;11.55;1.95;;;;;;;25.48;43.08;97858.75;5014190;28;20033;-75
2022/09/17 00:09:43;;;;;;;8.45;2.33;;;;;;;25.51;43.47;97859.09;4998383;28;20038;-74
2022/09/17 00:12:09;;;;;;;6.90;1.67;;;;;;;25.51;43.05;97858.25;5014328;28;20402;-75
2022/09/17 00:14:34;;;;;;;11.43;1.73;;;;;;;25.50;43.41;97857.44;4997855;28;20077;-74
2022/09/17 00:17:00;;;;;;;8.00;1.85;;;;;;;25.50;43.52;97860.13;4997642;28;20034;-74
2022/09/17 00:19:25;;;;;;;8.88;1.85;;;;;;;25.52;43.65;97854.53;5014616;28;20084;-75
2022/09/17 00:21:51;;;;;;;4.85;1.70;;;;;;;25.51;43.41;97856.41;5013845;28;20067;-75
2022/09/17 00:24:17;;;;;;;13.23;2.50;;;;;;;25.51;43.71;97853.75;4981190;28;20033;-75
2022/09/17 00:26:42;;;;;;;11.27;2.22;;;;;;;25.53;43.60;97866.88;5013715;28;20033;-74
2022/09/17 00:29:08;;;;;;;7.00;1.90;;;;;;;25.54;43.63;97869.31;5016333;28;20501;-75
2022/09/17 00:31:33;;;;;;;8.10;2.13;;;;;;;25.54;43.84;97858.63;5000742;28;20066;-74
2022/09/17 00:33:59;;;;;;;8.13;1.92;;;;;;;25.54;43.34;97857.78;5034792;28;20110;-74
2022/09/17 00:36:24;;;;;;;5.85;1.70;;;;;;;25.54;43.78;97855.94;5000642;28;20029;-75
2022/09/17 00:38:51;;;;;;;4.90;1.70;;;;;;;25.57;43.57;97854.66;4999811;28;20030;-75
2022/09/17 00:41:16;;;;;;;8.15;1.85;;;;;;;25.56;43.75;97853.84;4984299;28;20032;-75
2022/09/17 00:43:48;;;;;;;12.55;1.95;;;;;;;25.57;43.58;97849.31;4983846;28;20041;-75
2022/09/17 00:46:31;;;;;;;13.45;2.20;;;;;;;25.53;44.16;97856.97;4999786;28;20045;-73
2022/09/17 00:48:59;;;;;;;6.78;1.70;;;;;;;25.50;43.98;97848.63;5034620;28;20017;-73
2022/09/17 00:51:28;;;;;;;7.95;2.13;;;;;;;25.48;44.10;97850.75;4983960;28;20117;-73
2022/09/17 00:53:54;;;;;;;10.95;1.95;;;;;;;25.47;44.34;97841.88;4984665;28;20029;-76
2022/09/17 00:56:22;;;;;;;8.60;2.00;;;;;;;25.45;44.57;97844.00;4983720;28;20037;-74
2022/09/17 00:58:49;;;;;;;;;;;;;;;25.44;44.78;97850.38;5000764;28;20033;-73
2022/09/17 01:01:14;;;;;;;11.50;1.80;;;;;;;25.38;44.72;97851.31;4999987;28;19908;-75
2022/09/17 01:03:40;;;;;;;10.50;2.00;;;;;;;25.35;45.01;97846.44;5016359;28;20409;-73
2022/09/17 01:06:27;;;;;;;15.48;1.83;;;;;;;25.35;45.14;97849.94;5000016;28;20022;-75
2022/09/17 01:09:06;;;;;;;11.25;2.20;;;;;;;25.27;45.27;97847.59;5016134;28;20500;-73
2022/09/17 01:11:41;;;;;;;10.00;1.90;;;;;;;25.31;45.30;97848.78;5000372;28;20037;-75
2022/09/17 01:14:10;;;;;;;8.48;2.08;;;;;;;25.28;45.63;97854.56;5015784;28;20110;-73
2022/09/17 01:16:45;;;;;;;5.47;1.95;;;;;;;25.26;45.54;97848.63;5000148;28;20033;-75
2022/09/17 01:19:41;;;;;;;7.88;1.73;;;;;;;25.26;45.84;97841.44;5033789;28;20021;-73
2022/09/17 01:22:14;;;;;;;6.63;1.83;;;;;;;25.24;45.89;97832.84;5015844;28;20029;-75
2022/09/17 01:25:15;;;;;;;7.15;2.10;;;;;;;25.25;45.77;97823.78;5016355;28;20117;-74
2022/09/17 01:27:56;;;;;;;8.57;1.90;;;;;;;25.21;45.69;97822.63;4969270;28;20056;-74
2022/09/17 01:30:25;;;;;;;5.80;1.65;;;;;;;25.20;45.98;97830.88;4938290;29;20047;-74
2022/09/17 01:32:59;;;;;;;9.73;2.13;;;;;;;25.14;46.07;97826.47;4936341;29;20380;-74
2022/09/17 01:35:47;;;;;;;7.85;1.80;;;;;;;25.14;46.11;97829.94;4937798;29;20054;-74
2022/09/17 01:38:17;;;;;;;7.45;1.98;;;;;;;25.13;46.04;97830.16;4953442;29;20118;-74
2022/09/17 01:41:06;;;;;;;12.32;2.42;;;;;;;25.04;46.39;97819.84;4937702;29;20039;-74
2022/09/17 01:43:40;;;;;;;7.72;1.65;;;;;;;25.07;46.41;97826.59;4923590;29;20122;-74
2022/09/17 01:46:16;;;;;;;8.68;2.10;;;;;;;25.05;46.06;97818.00;4953148;29;20058;-74
2022/09/17 01:48:44;;;;;;;7.93;2.03;;;;;;;25.00;46.40;97810.69;4952929;29;20125;-74
2022/09/17 01:51:10;;;;;;;6.93;2.13;;;;;;;25.01;46.23;97814.16;4952795;28;20039;-74
2022/09/17 01:53:59;;;;;;;7.28;2.00;;;;;;;24.96;46.55;97811.41;4937021;29;20061;-74
2022/09/17 01:56:29;;;;;;;11.27;2.30;;;;;;;24.95;46.36;97812.44;4952934;29;20062;-74
2022/09/17 01:59:02;;;;;;;8.70;1.83;;;;;;;24.89;46.51;97816.81;4937230;29;20031;-74
2022/09/17 02:01:29;;;;;;;6.32;1.98;;;;;;;24.89;46.66;97816.81;4970323;28;20457;-74
2022/09/17 02:04:03;;;;;;;10.77;2.22;;;;;;;24.82;46.87;97808.94;4983130;28;20507;-74
2022/09/17 02:06:30;;;;;;;10.05;2.20;;;;;;;24.80;46.97;97807.56;4998557;28;20048;-74
2022/09/17 02:09:06;;;;;;;12.57;2.20;;;;;;;24.79;46.99;97819.28;4998746;28;20044;-74
2022/09/17 02:11:35;;;;;;;8.55;2.03;;;;;;;24.66;47.22;97797.09;4982673;28;20029;-74
2022/09/17 02:14:06;;;;;;;8.90;2.35;;;;;;;24.71;47.43;97789.22;4983578;28;20111;-74
2022/09/17 02:16:33;;;;;;;7.75;2.25;;;;;;;24.67;47.52;97790.72;4999487;28;20037;-74
2022/09/17 02:19:06;;;;;;;8.00;2.00;;;;;;;24.64;47.57;97793.06;4998456;28;20477;-74
2022/09/17 02:21:45;;;;;;;5.88;1.83;;;;;;;24.55;47.48;97784.53;5014958;28;20060;-74
2022/09/17 02:24:19;;;;;;;10.02;2.00;;;;;;;24.51;47.58;97784.19;4998550;28;20080;-75
2022/09/17 02:26:55;;;;;;;7.13;1.90;;;;;;;24.51;47.72;97794.88;4998092;28;20506;-75
2022/09/17 02:29:30;;;;;;;7.93;2.15;;;;;;;24.48;47.98;97794.50;4982490;28;20053;-74
2022/09/17 02:31:56;;;;;;;8.25;2.35;;;;;;;24.47;47.83;97798.22;4999256;28;20090;-74
2022/09/17 02:34:23;;;;;;;9.48;2.58;;;;;;;24.42;48.03;97798.91;4982078;28;20042;-74
2022/09/17 02:36:49;;;;;;;5.20;1.70;;;;;;;24.41;47.91;97807.13;4998919;28;20446;-74
2022/09/17 02:39:14;;;;;;;7.25;2.05;;;;;;;24.37;48.03;97804.13;4998221;28;20034;-75
2022/09/17 02:41:50;;;;;;;10.05;2.10;;;;;;;24.34;48.13;97797.38;5032186;28;20027;-75
2022/09/17 02:44:51;;;;;;;5.53;2.30;;;;;;;24.30;48.28;97798.88;4997656;28;20040;-74
2022/09/17 02:47:44;;;;;;;11.68;2.10;;;;;;;24.25;48.27;97801.41;4951959;29;20395;-75
2022/09/17 02:50:09;;;;;;;11.25;2.08;;;;;;;24.23;48.67;97800.00;4951982;29;20062;-74
2022/09/17 02:53:19;;;;;;;10.65;2.10;;;;;;;24.18;48.46;97788.19;4952374;29;20114;-74
2022/09/17 02:55:47;;;;;;;7.15;2.30;;;;;;;24.13;48.50;97796.06;4876332;29;20049;-74
2022/09/17 02:58:15;;;;;;;;;;;;;;;24.10;48.66;97779.69;4876875;29;20041;-74
2022/09/17 03:00:41;;;;;;;10.20;2.30;;;;;;;24.06;48.67;97783.88;4876281;29;19923;-73
2022/09/17 03:03:29;;;;;;;6.15;2.25;;;;;;;24.02;48.92;97781.66;4876377;29;20064;-73
2022/09/17 03:05:55;;;;;;;8.13;2.17;;;;;;;24.04;48.92;97778.75;4876170;29;20068;-73
2022/09/17 03:08:31;;;;;;;8.18;2.22;;;;;;;24.00;48.77;97761.59;4891616;29;20045;-75
2022/09/17 03:10:56;;;;;;;7.10;2.22;;;;;;;24.03;48.77;97769.13;4891222;29;20059;-74
2022/09/17 03:13:22;;;;;;;10.07;2.70;;;;;;;24.02;48.75;97764.81;4876307;29;20498;-74
2022/09/17 03:15:47;;;;;;;6.32;2.53;;;;;;;23.97;48.85;97760.22;4876412;29;20133;-73
2022/09/17 03:18:13;;;;;;;12.05;2.70;;;;;;;23.99;48.84;97762.66;4876093;29;20033;-75
2022/09/17 03:20:39;;;;;;;5.97;2.20;;;;;;;23.98;48.84;97769.81;4888334;29;20055;-75
2022/09/17 03:23:04;;;;;;;8.32;2.65;;;;;;;23.96;49.00;97752.44;4901200;29;20077;-75
2022/09/17 03:25:30;;;;;;;6.93;1.98;;;;;;;23.95;48.93;97751.59;4910372;28;20035;-75
2022/09/17 03:27:55;;;;;;;6.60;2.20;;;;;;;23.95;49.01;97742.81;4997779;28;20548;-75
2022/09/17 03:30:21;;;;;;;4.53;2.00;;;;;;;23.91;49.16;97755.78;5031852;28;20080;-74
2022/09/17 03:32:46;;;;;;;9.15;1.85;;;;;;;23.90;49.22;97758.69;5031893;28;20033;-74
2022/09/17 03:35:12;;;;;;;8.93;2.03;;;;;;;23.85;49.08;97772.69;5014351;28;20374;-73
2022/09/17 03:37:37;;;;;;;8.77;2.35;;;;;;;23.84;49.37;97760.38;5031909;28;20037;-74
2022/09/17 03:40:03;;;;;;;6.03;1.90;;;;;;;23.82;49.36;97757.91;4981324;28;20041;-74
2022/09/17 03:42:29;;;;;;;7.00;2.47;;;;;;;23.80;49.36;97746.66;4981725;28;20112;-74
2022/09/17 03:44:55;;;;;;;4.85;1.75;;;;;;;23.80;49.42;97744.00;4997774;28;20110;-74
2022/09/17 03:47:21;;;;;;;10.93;2.28;;;;;;;23.72;49.23;97743.50;5014034;28;20033;-74
2022/09/17 03:49:47;;;;;;;8.35;2.28;;;;;;;23.76;49.48;97734.84;4997858;28;20484;-74
2022/09/17 03:52:12;;;;;;;6.50;2.00;;;;;;;23.75;49.37;97730.56;5014223;28;20025;-74
2022/09/17 03:54:38;;;;;;;7.82;2.50;;;;;;;23.70;49.47;97727.75;4997779;28;20473;-74
2022/09/17 03:57:03;;;;;;;9.95;2.53;;;;;;;23.72;49.51;97732.84;5001600;28;20087;-76
2022/09/17 03:59:29;;;;;;;8.85;2.25;;;;;;;23.67;49.45;97726.34;5001465;28;20061;-75
2022/09/17 04:01:55;;;;;;;7.85;2.42;;;;;;;23.70;49.51;97722.41;5001492;28;20374;-75
2022/09/17 04:04:20;;;;;;;7.88;2.28;;;;;;;23.70;49.53;97718.94;5017949;28;20400;-73
2022/09/17 04:06:46;;;;;;;10.45;2.03;;;;;;;23.74;49.30;97722.78;5017536;28;20021;-74
2022/09/17 04:09:11;;;;;;;10.52;2.30;;;;;;;23.83;49.30;97716.94;5017886;28;20112;-74
2022/09/17 04:11:37;;;;;;;7.32;2.30;;;;;;;23.98;48.69;97719.16;5017361;28;20021;-75
2022/09/17 04:14:02;;;;;;;11.00;2.45;;;;;;;24.12;48.42;97698.44;4984856;28;20030;-74
2022/09/17 04:16:28;;;;;;;6.93;2.08;;;;;;;24.37;48.17;97718.78;5000891;28;20033;-74
2022/09/17 04:18:53;;;;;;;9.57;2.55;;;;;;;24.62;47.30;97720.41;4985067;28;20060;-76
2022/09/17 04:21:19;;;;;;;11.45;2.53;;;;;;;24.92;46.43;97714.94;4984864;28;20091;-74
2022/09/17 04:23:44;;;;;;;9.43;2.30;;;;;;;25.33;45.63;97715.78;4984716;28;20029;-75
2022/09/17 04:26:10;;;;;;;6.60;2.25;;;;;;;25.81;44.62;97714.56;5000765;28;20029;-75
2022/09/17 04:28:35;;;;;;;9.88;2.30;;;;;;;26.29;43.38;97704.38;5034720;28;20539;-75
2022/09/17 04:31:01;;;;;;;14.30;2.40;;;;;;;26.80;42.19;97700.88;5000744;28;20046;-75
2022/09/17 04:33:26;;;;;;;5.97;2.20;;;;;;;27.33;40.98;97698.59;5017320;28;20033;-76
2022/09/17 04:35:52;;;;;;;8.90;2.40;;;;;;;27.87;39.74;97692.44;5034632;28;20037;-75
2022/09/17 04:38:19;;;;;;;8.68;2.20;;;;;;;28.48;38.37;97703.66;5017136;28;20044;-75
2022/09/17 04:40:47;;;;;;;6.43;1.98;;;;;;;29.09;37.54;97715.81;5000115;28;20471;-75
2022/09/17 04:43:13;;;;;;;8.07;2.15;;;;;;;29.59;36.16;97711.72;4984789;28;20033;-76
2022/09/17 04:45:38;;;;;;;11.10;2.08;;;;;;;30.18;35.05;97714.22;4984182;28;20479;-75
2022/09/17 04:48:04;;;;;;;16.48;2.63;;;;;;;30.64;34.32;97703.41;4983385;28;20037;-75
2022/09/17 04:50:29;;;;;;;8.18;2.35;;;;;;;31.22;33.59;97711.06;5000575;28;20045;-74
2022/09/17 04:52:55;;;;;;;9.30;1.85;;;;;;;31.73;32.32;97726.19;5034381;28;20025;-76
2022/09/17 04:55:20;;;;;;;11.50;2.15;;;;;;;32.26;31.42;97720.13;5034557;28;20481;-75
2022/09/17 04:57:49;;;;;;;12.60;2.70;;;;;;;32.52;31.22;97715.31;5000002;28;20038;-75
2022/09/17 05:00:16;;;;;;;10.25;3.47;;;;;;;32.75;30.93;97710.22;5016770;28;20080;-74
2022/09/17 05:02:43;;;;;;;11.75;3.25;;;;;;;32.85;30.64;97715.53;5000411;28;20042;-73
2022/09/17 05:05:08;;;;;;;12.73;2.80;;;;;;;33.44;29.79;97712.66;5000487;28;20076;-75
2022/09/17 05:07:34;;;;;;;11.40;2.92;;;;;;;33.68;29.58;97718.81;5015604;28;20324;-74
2022/09/17 05:09:59;;;;;;;9.77;2.72;;;;;;;32.83;30.73;97717.72;5016665;28;20092;-74
2022/09/17 05:12:25;;;;;;;10.70;2.88;;;;;;;32.39;31.21;97719.47;5016874;28;20064;-75
2022/09/17 05:14:50;;;;;;;12.43;2.83;;;;;;;32.99;30.42;97712.94;4999962;28;20062;-74
2022/09/17 05:17:16;;;;;;;9.13;2.75;;;;;;;33.69;29.27;97715.00;5016341;28;20033;-75
2022/09/17 05:19:41;;;;;;;7.90;2.65;;;;;;;33.16;30.11;97715.97;4999507;28;20056;-76
2022/09/17 05:22:07;;;;;;;8.65;2.67;;;;;;;32.78;30.92;97723.16;4999943;28;20095;-75
2022/09/17 05:24:32;;;;;;;9.57;2.30;;;;;;;32.68;31.16;97723.28;5016065;28;20491;-75
2022/09/17 05:26:58;;;;;;;12.30;2.80;;;;;;;33.28;30.22;97723.69;5033728;28;20033;-75
2022/09/17 05:29:23;;;;;;;10.48;2.50;;;;;;;33.60;29.52;97735.69;4983275;28;20472;-74
2022/09/17 05:31:49;;;;;;;11.52;2.45;;;;;;;33.99;29.07;97723.78;5000089;28;20033;-75
2022/09/17 05:34:14;;;;;;;9.30;2.13;;;;;;;34.69;27.98;97721.28;4999664;28;20469;-75
2022/09/17 05:36:40;;;;;;;9.07;2.30;;;;;;;35.29;26.74;97709.56;4999681;28;20029;-75
2022/09/17 05:39:05;;;;;;;9.27;2.75;;;;;;;35.90;25.87;97717.44;5015513;28;20420;-76
2022/09/17 05:41:31;;;;;;;13.63;2.90;;;;;;;36.35;25.25;97712.00;5015938;28;20140;-75
2022/09/17 05:43:56;;;;;;;12.65;3.58;;;;;;;36.76;24.52;97710.94;4999478;28;20045;-75
2022/09/17 05:46:22;;;;;;;14.15;2.70;;;;;;;37.15;23.90;97706.59;4999845;28;20033;-76
2022/09/17 05:48:47;;;;;;;13.23;3.28;;;;;;;37.55;23.37;97698.31;5033527;28;20108;-75
2022/09/17 05:51:13;;;;;;;11.52;2.78;;;;;;;37.88;22.99;97695.16;5015601;28;20029;-75
2022/09/17 05:53:38;;;;;;;13.05;2.85;;;;;;;38.13;22.76;97689.97;5033269;28;20029;-75
2022/09/17 05:56:04;;;;;;;7.03;2.33;;;;;;;38.49;22.80;97705.94;5015677;28;20033;-75
2022/09/17 05:58:30;;;;;;;12.82;2.67;;;;;;;38.79;22.17;97707.91;4999467;28;20048;-76
2022/09/17 06:00:56;;;;;;;7.10;2.00;;;;;;;39.07;21.52;97705.53;4999820;28;20049;-76
2022/09/17 06:03:21;;;;;;;8.93;2.38;;;;;;;39.39;21.43;97703.25;4999079;28;20501;-74
2022/09/17 06:05:57;;;;;;;11.07;2.40;;;;;;;39.53;21.14;97703.03;5015204;28;20107;-77
2022/09/17 06:08:23;;;;;;;10.82;2.30;;;;;;;39.76;20.90;97711.69;4984149;28;20160;-76
2022/09/17 06:10:49;;;;;;;10.18;2.17;;;;;;;39.85;20.78;97711.59;4998634;28;20041;-76
2022/09/17 06:13:18;;;;;;;14.23;2.50;;;;;;;40.10;20.41;97713.28;4996037;28;20041;-76
2022/09/17 06:15:53;;;;;;;10.73;2.75;;;;;;;40.26;20.36;97716.19;4963609;28;20022;-75
2022/09/17 06:18:18;;;;;;;10.07;2.50;;;;;;;40.40;19.84;97720.56;4970353;28;20072;-76
2022/09/17 06:20:55;;;;;;;12.50;2.40;;;;;;;40.53;20.18;97727.66;5015249;28;20069;-76
2022/09/17 06:23:21;;;;;;;13.52;2.83;;;;;;;40.71;20.19;97728.25;4998999;28;20037;-76
2022/09/17 06:25:54;;;;;;;14.65;2.90;;;;;;;40.85;19.78;97727.97;5014599;28;20037;-76
2022/09/17 06:28:20;;;;;;;13.02;3.25;;;;;;;41.02;19.39;97725.00;4982566;28;20119;-75
2022/09/17 06:30:45;;;;;;;15.07;3.08;;;;;;;41.05;19.30;97728.97;4998601;28;20112;-75
2022/09/17 06:33:11;;;;;;;11.63;2.80;;;;;;;41.14;19.24;97724.16;4982359;28;20441;-75
2022/09/17 06:35:37;;;;;;;15.40;2.80;;;;;;;40.98;19.65;97734.22;5015610;28;20040;-75
2022/09/17 06:38:05;;;;;;;12.85;2.60;;;;;;;40.64;19.69;97744.41;4982527;28;20025;-76
2022/09/17 06:40:31;;;;;;;12.27;3.03;;;;;;;40.14;20.17;97755.22;5015030;28;20029;-76
2022/09/17 06:42:58;;;;;;;13.88;2.67;;;;;;;39.70;20.74;97752.03;4982396;28;20036;-75
2022/09/17 06:45:23;;;;;;;;;;;;;;;39.36;21.13;97753.88;5015332;28;20029;-75
2022/09/17 06:47:49;;;;;;;15.10;3.20;;;;;;;39.62;20.90;97748.25;4998303;28;19921;-75
2022/09/17 06:50:14;;;;;;;14.15;3.33;;;;;;;39.82;20.64;97750.50;5014647;28;20048;-75
2022/09/17 06:52:50;;;;;;;9.70;2.88;;;;;;;39.96;20.71;97745.53;5032296;28;20036;-75
2022/09/17 06:55:15;;;;;;;13.15;3.42;;;;;;;39.97;20.84;97747.19;5015064;28;20025;-75
2022/09/17 06:57:41;;;;;;;19.55;3.45;;;;;;;39.63;21.13;97740.84;5014461;28;20048;-75
2022/09/17 07:00:07;;;;;;;11.05;3.17;;;;;;;39.83;20.98;97746.66;4998353;28;20026;-74
2022/09/17 07:02:33;;;;;;;12.15;3.53;;;;;;;39.84;21.22;97748.22;5014762;28;20106;-77
2022/09/17 07:04:59;;;;;;;10.43;3.30;;;;;;;39.83;20.96;97749.38;4998526;28;20540;-76
2022/09/17 07:07:24;;;;;;;10.95;2.60;;;;;;;39.98;21.05;97751.53;5031079;28;20401;-74
2022/09/17 07:09:52;;;;;;;10.48;3.00;;;;;;;40.25;20.66;97736.47;4994805;28;20084;-77
2022/09/17 07:12:18;;;;;;;13.00;3.13;;;;;;;40.59;20.37;97739.19;4979170;28;20054;-74
2022/09/17 07:14:46;;;;;;;8.93;2.90;;;;;;;40.83;20.39;97736.47;4978747;28;20040;-74
2022/09/17 07:17:12;;;;;;;7.22;2.50;;;;;;;40.97;19.80;97743.56;4978400;28;20046;-77
2022/09/17 07:19:38;;;;;;;18.85;3.35;;;;;;;41.18;19.45;97746.16;4994918;28;20200;-75
2022/09/17 07:22:04;;;;;;;13.20;2.80;;;;;;;41.13;19.53;97747.19;4978350;28;20498;-75
2022/09/17 07:24:29;;;;;;;9.55;2.40;;;;;;;41.35;19.15;97742.41;4995359;28;20101;-75
2022/09/17 07:26:55;;;;;;;11.07;2.95;;;;;;;41.70;19.19;97744.59;4978627;28;20406;-75
2022/09/17 07:29:22;;;;;;;11.65;2.72;;;;;;;42.00;18.86;97747.03;5011971;28;20054;-75
2022/09/17 07:31:47;;;;;;;;;;;;;;;41.75;19.26;97749.84;4967053;28;20478;-75
2022/09/17 07:34:13;;;;;;;13.70;2.50;;;;;;;41.17;19.86;97752.78;4982775;28;19920;-77
2022/09/17 07:36:38;;;;;;;12.32;2.55;;;;;;;41.00;19.75;97743.66;4982039;28;20572;-76
2022/09/17 07:39:04;;;;;;;9.40;2.72;;;;;;;40.81;19.83;97748.88;4998515;28;20038;-75
2022/09/17 07:41:29;;;;;;;8.05;2.63;;;;;;;40.73;20.06;97734.19;5016257;28;20033;-76
2022/09/17 07:43:55;;;;;;;12.73;2.65;;;;;;;40.99;19.81;97741.28;5015744;28;20405;-74
2022/09/17 07:46:20;;;;;;;12.20;3.70;;;;;;;40.27;20.46;97734.19;5016423;28;20030;-76
2022/09/17 07:48:46;;;;;;;13.35;3.42;;;;;;;39.75;21.15;97737.38;4998231;28;20029;-75
2022/09/17 07:51:20;;;;;;;11.95;2.88;;;;;;;39.30;21.80;97724.34;5016241;28;20072;-78
2022/09/17 07:53:46;;;;;;;6.90;2.90;;;;;;;38.79;22.53;97716.88;4965860;28;20049;-75
2022/09/17 07:56:12;;;;;;;12.65;2.72;;;;;;;38.45;22.53;97718.63;5015703;28;20026;-76
2022/09/17 07:58:37;;;;;;;13.07;5.00;;;;;;;38.08;23.06;97720.09;4981903;28;20022;-76
2022/09/17 08:01:04;;;;;;;10.63;4.10;;;;;;;38.00;23.38;97719.00;5015521;28;20091;-74
2022/09/17 08:03:29;;;;;;;13.45;3.72;;;;;;;37.77;23.92;97712.94;4981918;28;20523;-74
2022/09/17 08:06:12;;;;;;;13.85;3.55;;;;;;;37.50;23.99;97724.91;4965975;28;20033;-75
2022/09/17 08:08:38;;;;;;;16.10;4.93;;;;;;;37.22;25.13;97733.34;4982330;28;20057;-74
2022/09/17 08:11:07;;;;;;;10.68;3.60;;;;;;;36.86;24.91;97720.72;5015400;28;20024;-75
2022/09/17 08:13:33;;;;;;;10.82;3.95;;;;;;;36.60;25.30;97718.69;4981614;28;20453;-76
2022/09/17 08:16:04;;;;;;;10.23;3.75;;;;;;;36.42;25.57;97728.69;4982215;28;20022;-76
2022/09/17 08:18:29;;;;;;;12.02;3.22;;;;;;;36.24;25.75;97725.03;4965973;28;20034;-74
2022/09/17 08:20:58;;;;;;;13.23;3.30;;;;;;;36.30;26.05;97712.16;5015152;28;20486;-74
2022/09/17 08:23:25;;;;;;;11.32;3.83;;;;;;;36.12;26.34;97703.88;4980227;28;20489;-75
2022/09/17 08:25:57;;;;;;;9.33;3.77;;;;;;;35.92;26.34;97710.59;4965497;28;20049;-75
2022/09/17 08:28:24;;;;;;;12.20;3.88;;;;;;;35.80;26.49;97718.47;4982538;28;20516;-74
2022/09/17 08:30:50;;;;;;;10.80;3.40;;;;;;;35.67;26.76;97723.63;4981423;28;20054;-75
2022/09/17 08:33:16;;;;;;;12.18;3.65;;;;;;;35.53;26.85;97719.34;4981683;28;20026;-76
2022/09/17 08:35:42;;;;;;;15.20;4.15;;;;;;;35.37;27.20;97727.03;4997569;28;20117;-75
2022/09/17 08:38:07;;;;;;;13.38;3.80;;;;;;;35.26;27.15;97721.00;4997702;28;20061;-76
2022/09/17 08:40:36;;;;;;;12.98;3.92;;;;;;;35.24;27.14;97712.34;4964402;28;20064;-76
2022/09/17 08:43:01;;;;;;;11.95;4.25;;;;;;;35.17;27.41;97712.78;4981410;28;20026;-75
2022/09/17 08:45:27;;;;;;;10.70;3.97;;;;;;;34.95;28.14;97698.03;4997433;28;20057;-76
2022/09/17 08:48:01;;;;;;;9.95;3.90;;;;;;;34.74;28.31;97678.66;4964224;28;20033;-75
2022/09/17 08:50:31;;;;;;;13.63;4.30;;;;;;;34.61;28.81;97674.78;4981499;28;20084;-78
2022/09/17 08:53:30;;;;;;;14.95;4.28;;;;;;;34.49;29.02;97674.50;4981095;28;20464;-75
2022/09/17 08:56:00;;;;;;;14.23;4.75;;;;;;;34.37;29.02;97676.88;4997136;28;20073;-74
2022/09/17 08:58:55;;;;;;;14.63;4.40;;;;;;;34.29;29.74;97674.88;4981419;28;20101;-76
2022/09/17 09:01:41;;;;;;;12.35;4.38;;;;;;;34.63;29.31;97679.91;5000078;28;20440;-76
2022/09/17 09:04:17;;;;;;;12.75;4.22;;;;;;;34.94;28.60;97669.28;4997416;28;20105;-74
2022/09/17 09:06:54;;;;;;;11.00;4.20;;;;;;;35.01;28.48;97659.94;4981843;28;20030;-75
2022/09/17 09:09:21;;;;;;;18.10;4.25;;;;;;;35.04;28.45;97673.69;4965580;28;20026;-76
2022/09/17 09:11:47;;;;;;;16.48;4.15;;;;;;;35.81;27.30;97677.47;4964809;28;20041;-75
2022/09/17 09:14:25;;;;;;;14.13;4.20;;;;;;;36.58;26.35;97672.78;4996634;28;20037;-75
2022/09/17 09:16:51;;;;;;;15.55;3.45;;;;;;;37.04;25.48;97676.16;4996772;28;20034;-75
2022/09/17 09:19:28;;;;;;;13.13;3.55;;;;;;;37.39;25.10;97678.16;4980698;28;20033;-73
2022/09/17 09:22:32;;;;;;;12.05;4.00;;;;;;;37.64;24.62;97684.72;4980053;28;20049;-76
2022/09/17 09:25:09;;;;;;;11.50;3.90;;;;;;;37.83;24.50;97684.44;4915491;29;20052;-76
2022/09/17 09:27:37;;;;;;;;;;;;;;;38.06;24.41;97682.28;4900157;29;20040;-77
2022/09/17 09:30:04;;;;;;;13.02;3.95;;;;;;;38.24;24.37;97674.09;4899747;29;20383;-76
2022/09/17 09:32:32;;;;;;;16.00;4.68;;;;;;;38.35;24.38;97659.81;4899628;29;20064;-77
2022/09/17 09:34:58;;;;;;;13.52;3.33;;;;;;;38.46;24.21;97662.16;4915645;29;20044;-75
2022/09/17 09:37:28;;;;;;;14.52;3.40;;;;;;;38.54;24.02;97655.91;4899715;29;20035;-75
2022/09/17 09:39:54;;;;;;;10.75;3.30;;;;;;;38.69;23.77;97652.63;4883774;29;20040;-77
2022/09/17 09:42:32;;;;;;;12.75;3.50;;;;;;;38.73;23.59;97637.22;4899562;29;20044;-75
2022/09/17 09:45:10;;;;;;;12.10;2.90;;;;;;;38.60;24.01;97616.38;4899267;29;20524;-74
2022/09/17 09:47:51;;;;;;;3.88;1.70;;;;;;;38.27;23.81;97614.31;4900667;29;20563;-74
2022/09/17 09:50:24;;;;;;;6.78;2.20;;;;;;;37.88;24.30;97599.84;4915298;29;20033;-74
2022/09/17 09:53:02;;;;;;;17.88;2.30;;;;;;;37.71;24.33;97605.31;4898673;29;20044;-76
2022/09/17 09:55:42;;;;;;;6.15;2.15;;;;;;;37.84;23.97;97609.75;4915049;29;20028;-76
2022/09/17 09:58:31;;;;;;;10.23;2.15;;;;;;;37.88;24.00;97599.84;4914928;29;20036;-76
2022/09/17 10:00:57;;;;;;;9.00;2.17;;;;;;;37.93;23.53;97602.38;4944190;28;20133;-75
2022/09/17 10:03:23;;;;;;;8.10;2.15;;;;;;;37.98;23.61;97604.91;4979251;28;20129;-74
2022/09/17 10:06:02;;;;;;;10.40;2.37;;;;;;;38.04;23.30;97610.22;4979554;28;20400;-76
2022/09/17 10:08:29;;;;;;;7.47;2.33;;;;;;;37.97;23.65;97594.34;4963416;28;20113;-77
2022/09/17 10:11:02;;;;;;;;;;;;;;;37.86;23.74;97606.72;4963933;28;20030;-78
2022/09/17 10:13:30;;;;;;;11.30;2.38;;;;;;;37.76;24.12;97602.41;4995690;28;19915;-75
2022/09/17 10:15:56;;;;;;;7.55;2.85;;;;;;;37.85;24.02;97599.69;4979816;28;20054;-76
2022/09/17 10:18:23;;;;;;;6.32;2.30;;;;;;;37.63;24.14;97580.47;4995978;28;20378;-75
2022/09/17 10:20:55;;;;;;;8.20;2.28;;;;;;;37.54;24.46;97587.06;4979873;28;20392;-74
2022/09/17 10:23:21;;;;;;;5.60;2.30;;;;;;;37.17;24.70;97592.81;5012978;28;20029;-75
2022/09/17 10:25:47;;;;;;;12.43;2.38;;;;;;;36.92;25.15;97599.81;4963134;28;20052;-73
2022/09/17 10:28:28;;;;;;;11.70;2.40;;;;;;;36.43;25.91;97594.41;4995118;28;20076;-77
2022/09/17 10:31:02;;;;;;;10.65;2.40;;;;;;;36.38;25.86;97591.84;4979317;28;20149;-74
2022/09/17 10:33:28;;;;;;;12.93;2.40;;;;;;;36.33;25.66;97589.28;4995864;28;20037;-75
2022/09/17 10:36:09;;;;;;;10.00;2.25;;;;;;;36.37;25.40;97579.34;4963011;28;20501;-75
2022/09/17 10:38:41;;;;;;;6.57;2.00;;;;;;;36.36;25.55;97581.28;4964925;28;20128;-74
2022/09/17 10:41:18;;;;;;;10.27;2.10;;;;;;;36.30;25.50;97570.88;4963623;28;20425;-75
2022/09/17 10:43:44;;;;;;;12.35;2.60;;;;;;;36.26;25.26;97562.53;4979957;28;20032;-76
2022/09/17 10:46:14;;;;;;;14.02;2.67;;;;;;;35.99;25.73;97558.91;4979179;28;20134;-75
2022/09/17 10:48:45;;;;;;;11.52;2.30;;;;;;;35.85;26.12;97569.03;4962923;28;20022;-77
2022/09/17 10:51:10;;;;;;;11.50;3.03;;;;;;;35.80;26.32;97564.56;4978728;28;20026;-76
2022/09/17 10:54:00;;;;;;;10.18;2.60;;;;;;;35.80;26.89;97570.00;4978823;28;20113;-79
2022/09/17 10:56:30;;;;;;;10.35;2.50;;;;;;;35.58;26.98;97569.97;4963311;28;20080;-73
2022/09/17 10:59:14;;;;;;;13.20;2.60;;;;;;;35.41;27.73;97559.78;4978343;28;20042;-74
2022/09/17 11:01:45;;;;;;;11.02;2.60;;;;;;;35.27;27.99;97559.88;4997847;28;20034;-73
2022/09/17 11:04:41;;;;;;;9.00;2.38;;;;;;;35.15;28.79;97553.06;4994631;28;20064;-74
2022/09/17 11:07:21;;;;;;;6.03;2.08;;;;;;;35.11;28.56;97535.78;4914165;29;20175;-76
2022/09/17 11:09:52;;;;;;;9.23;2.40;;;;;;;35.09;28.92;97538.03;4914302;29;20067;-77
2022/09/17 11:12:20;;;;;;;8.02;2.78;;;;;;;34.92;29.03;97538.69;4898782;29;20044;-79
2022/09/17 11:14:48;;;;;;;10.25;2.42;;;;;;;34.68;30.27;97538.91;4913863;29;20028;-73
2022/09/17 11:17:42;;;;;;;17.42;2.95;;;;;;;34.32;29.78;97528.03;4913602;29;20083;-74
2022/09/17 11:20:45;;;;;;;33.47;3.72;;;;;;;34.00;30.54;97571.09;4898269;29;20103;-76
2022/09/17 11:23:19;;;;;;;19.75;2.75;;;;;;;33.76;30.90;97578.56;4913771;29;20036;-75
2022/09/17 11:25:51;;;;;;;33.65;3.30;;;;;;;33.57;31.65;97555.03;4897993;29;20127;-77
2022/09/17 11:28:26;;;;;;;15.23;2.30;;;;;;;33.42;31.41;97523.63;4913761;29;20055;-73
2022/09/17 11:31:17;;;;;;;20.08;2.60;;;;;;;33.29;31.27;97510.84;4913283;29;20075;-75
2022/09/17 11:33:57;;;;;;;16.52;2.60;;;;;;;33.15;31.60;97521.63;4898509;29;20059;-74
2022/09/17 11:36:25;;;;;;;15.73;2.78;;;;;;;33.02;32.75;97525.88;4913814;29;20228;-75
2022/09/17 11:38:52;;;;;;;9.65;2.30;;;;;;;32.88;32.75;97531.19;4882556;29;20417;-74
2022/09/17 11:41:33;;;;;;;10.68;2.75;;;;;;;32.78;32.85;97542.13;4913745;29;20115;-75